AirNav   ATP
 
 1601 users online  

8MD3 Sinai II Heliport
Baltimore, Maryland, USA

GOING TO BALTIMORE?


FAA INFORMATION EFFECTIVE 14 SEPTEMBER 2017

Location

FAA Identifier: 8MD3
Lat/Long: 39-21-07.0600N / 076-39-42.6100W
39-21.117667N / 076-39.710167W
39.3519611 / -76.6618361
(estimated)
Elevation: 320 ft. / 98 m (estimated)
Variation: 11W (1995)
From city: 4 miles SW of BALTIMORE, MD
Time zone: UTC -4 (UTC -5 during Standard Time)
Zip code: 21209

Heliport Operations

Heliport use: Private use. Permission required prior to landing
Activation date: 06/1999
Control tower: no
ARTCC: WASHINGTON CENTER
FSS: LEESBURG FLIGHT SERVICE STATION
Attendance: UNATNDD
Wind indicator: yes
Segmented circle: no
Lights: SS-SR

Heliport Communications

WX ASOS at BWI (11 nm S): PHONE 410-691-1278
WX AWOS-3PT at MTN (12 nm E): 124.925 (410-682-8848)
WX AWOS-3 at FME (17 nm S): 123.925

Nearby radio navigation aids

VOR radial/distance  VOR name  Freq  Var
BALr011/10.9BALTIMORE VORTAC115.1011W
EMIr128/17.0WESTMINSTER VORTAC117.9008W
PPMr262/23.8PHILLIPS VOR/DME108.4009W
FDKr104/(33.3)FREDERICK VOR109.0008W
ADWr026/34.0ANDREWS VORTAC113.1010W
DCAr040/34.3WASHINGTON VOR/DME111.0009W
OTTr016/39.0NOTTINGHAM VORTAC113.7010W

 
NDB name  Hdg/Dist  Freq  Var  ID
INSTITUTE344/4.240408WIUB .. ..- -...
ELLICOTT065/6.637111WFND ..-. -. -..
ABERDEEN257/28.034910WAPG .- .--. --.
GEORGETOWN049/33.232309WGTN --. - -.
OXONN037/39.133211WDCA -.. -.-. .-

Heliport Services

Runway Information

Helipad H1

Dimensions: 40 x 38 ft. / 12 x 12 m
Surface: ROOF/TOP, in good condition
Runway edge lights: PERI
Latitude: 39-21.117667N
Longitude: 076-39.710167W
Elevation: 320.0 ft.
Traffic pattern: leftleft

Heliport Ownership and Management from official FAA records

Ownership: Privately-owned
Owner: SINAI HOSPITAL
2401 W BELVEDERE AVE
BALTIMORE, MD 21215-5271
Phone 410-601-5036
Manager: CHARLES MOORE
2401 W BELVEDERE AVE
BALTIMORE, MD 21215-5271
Phone 410-601-9842

Additional Remarks

A52-H1 1259 FT ANTENNA 500 FT S, 100 FT LDG 100 FT W, 200 SMOKE STACK 100 FT SE.

Instrument Procedures

There are no published instrument procedures at 8MD3.

Some nearby airports with instrument procedures:

KBWI - Baltimore/Washington International Thurgood Marshall Airport (11 nm S)
KMTN - Martin State Airport (12 nm E)
KFME - Tipton Airport (17 nm S)
2W2 - Clearview Airpark (18 nm NW)
KDMW - Carroll County Regional Airport/Jack B Poage Field (22 nm NW)
 
Loc | Ops | Rwys | IFR | FBO | Links
Com | Nav | Svcs | Stats | Notes


 
Area around 8MD3 (Sinai II Heliport)
 
Road maps at: MapQuest Bing Google
 
Aerial photo
No photo
 
Sectional chart

 
Airport distance calculator
Flying to Sinai II Heliport? Find the distance to fly.

From to 8MD3

Sunrise and sunset
Times for 21-Sep-2017
 Local
(UTC-4)
 Zulu
(UTC)
Morning civil twilight06:2810:28
Sunrise06:5410:54
Sunset19:0523:05
Evening civil twilight19:3223:32

Current date and time
Zulu (UTC)  21-Sep-2017 15:17:43
Local (UTC-4)  21-Sep-2017 11:17:43
 
METAR
KDMH 
5nm SE 
211454Z AUTO 28/17 A3005 RMK AO1 SLP174 T02780172 58004
KBWI 
11nm S 
211454Z 35004KT 10SM FEW160 SCT200 28/18 A3004 RMK AO2 SLP172 T02780178 58004
KMTN 
12nm E 
211445Z 32005KT 10SM SCT120 27/21 A3006
KFME 
17nm S 
211445Z AUTO 35003KT 10SM CLR 26/18 A3008 RMK AO1
TAF
KBWI 
11nm S 
211136Z 2112/2218 35003KT P6SM FEW040 FEW250
KMTN 
12nm E 
211136Z 2112/2212 35003KT P6SM FEW040 SCT200= TAF KIAD 211136Z 2112/2218 34004KT P6SM FEW040 FEW250 FM220000 04004KT P6SM FEW200 FEW250 FM220700 00000KT 4SM BR FEW060 FEW250 FM221200 VRB03KT 5SM BR FEW040 FEW250
NOTAMs
Click for the latest NOTAMs
NOTAMs are issued by the DoD/FAA and will open in a separate window not controlled by AirNav.

 

 
 

Would you like to see your business listed on this page?

 If your business provides an interesting product or service to pilots, flight crews, aircraft, or users of the Sinai II Heliport, you should consider listing it here.  To start the listing process, click on the button below
 
Add a business
 

Other Pages about Sinai II Heliport

Update a link
 
Copyright © AirNav, LLC. All rights reserved. Privacy Policy  Contact